sensor_id;sensor_type;location;lat;lon;timestamp;temperature;humidity
41668;DHT22;27356;50.920;5.350;2023-06-22T00:00:58;21.70;96.70
41668;DHT22;27356;50.920;5.350;2023-06-22T00:03:25;21.60;97.00
41668;DHT22;27356;50.920;5.350;2023-06-22T00:05:52;21.40;97.30
41668;DHT22;27356;50.920;5.350;2023-06-22T00:08:18;21.40;97.10
41668;DHT22;27356;50.920;5.350;2023-06-22T00:10:45;21.40;97.20
41668;DHT22;27356;50.920;5.350;2023-06-22T00:13:12;21.40;97.20
41668;DHT22;27356;50.920;5.350;2023-06-22T00:15:39;21.20;97.40
41668;DHT22;27356;50.920;5.350;2023-06-22T00:18:09;21.30;97.40
41668;DHT22;27356;50.920;5.350;2023-06-22T00:20:35;21.20;97.60
41668;DHT22;27356;50.920;5.350;2023-06-22T00:23:03;21.20;97.50
41668;DHT22;27356;50.920;5.350;2023-06-22T00:25:35;21.20;97.40
41668;DHT22;27356;50.920;5.350;2023-06-22T00:28:02;21.10;97.50
41668;DHT22;27356;50.920;5.350;2023-06-22T00:30:28;21.00;97.60
41668;DHT22;27356;50.920;5.350;2023-06-22T00:32:54;21.10;97.40
41668;DHT22;27356;50.920;5.350;2023-06-22T00:35:19;21.10;97.60
41668;DHT22;27356;50.920;5.350;2023-06-22T00:37:45;21.20;97.20
41668;DHT22;27356;50.920;5.350;2023-06-22T00:40:11;21.20;96.80
41668;DHT22;27356;50.920;5.350;2023-06-22T00:42:38;21.20;97.20
41668;DHT22;27356;50.920;5.350;2023-06-22T00:45:05;21.10;97.10
41668;DHT22;27356;50.920;5.350;2023-06-22T00:47:31;21.20;97.10
41668;DHT22;27356;50.920;5.350;2023-06-22T00:49:58;21.30;96.80
41668;DHT22;27356;50.920;5.350;2023-06-22T00:52:25;21.30;96.70
41668;DHT22;27356;50.920;5.350;2023-06-22T00:54:55;21.40;96.70
41668;DHT22;27356;50.920;5.350;2023-06-22T00:57:22;21.20;96.80
41668;DHT22;27356;50.920;5.350;2023-06-22T00:59:54;21.30;96.80
41668;DHT22;27356;50.920;5.350;2023-06-22T01:02:20;21.40;96.60
41668;DHT22;27356;50.920;5.350;2023-06-22T01:04:45;21.40;96.60
41668;DHT22;27356;50.920;5.350;2023-06-22T01:07:22;21.40;96.50
41668;DHT22;27356;50.920;5.350;2023-06-22T01:12:23;21.40;96.60
41668;DHT22;27356;50.920;5.350;2023-06-22T01:15:08;21.50;96.40
41668;DHT22;27356;50.920;5.350;2023-06-22T01:17:35;21.30;96.60
41668;DHT22;27356;50.920;5.350;2023-06-22T01:20:02;21.50;96.60
41668;DHT22;27356;50.920;5.350;2023-06-22T01:22:36;21.40;96.80
41668;DHT22;27356;50.920;5.350;2023-06-22T01:25:26;21.30;96.60
41668;DHT22;27356;50.920;5.350;2023-06-22T01:28:17;21.40;96.50
41668;DHT22;27356;50.920;5.350;2023-06-22T01:30:46;21.40;96.70
41668;DHT22;27356;50.920;5.350;2023-06-22T01:33:15;21.30;97.00
41668;DHT22;27356;50.920;5.350;2023-06-22T01:35:41;21.20;97.10
41668;DHT22;27356;50.920;5.350;2023-06-22T01:38:08;21.10;97.50
41668;DHT22;27356;50.920;5.350;2023-06-22T01:40:35;21.10;98.00
41668;DHT22;27356;50.920;5.350;2023-06-22T01:43:03;21.00;98.30
41668;DHT22;27356;50.920;5.350;2023-06-22T01:45:29;21.00;98.10
41668;DHT22;27356;50.920;5.350;2023-06-22T01:47:55;20.90;98.60
41668;DHT22;27356;50.920;5.350;2023-06-22T01:50:22;20.90;98.50
41668;DHT22;27356;50.920;5.350;2023-06-22T01:52:47;20.80;99.00
41668;DHT22;27356;50.920;5.350;2023-06-22T01:55:13;20.80;99.00
41668;DHT22;27356;50.920;5.350;2023-06-22T01:57:39;20.80;98.80
41668;DHT22;27356;50.920;5.350;2023-06-22T02:00:16;21.00;98.10
41668;DHT22;27356;50.920;5.350;2023-06-22T02:02:54;20.90;98.50
41668;DHT22;27356;50.920;5.350;2023-06-22T02:05:24;20.80;99.40
41668;DHT22;27356;50.920;5.350;2023-06-22T02:08:09;20.80;99.30
41668;DHT22;27356;50.920;5.350;2023-06-22T02:10:37;20.70;99.70
41668;DHT22;27356;50.920;5.350;2023-06-22T02:13:06;20.80;99.70
41668;DHT22;27356;50.920;5.350;2023-06-22T02:15:33;20.80;99.90
41668;DHT22;27356;50.920;5.350;2023-06-22T02:18:01;20.80;99.90
41668;DHT22;27356;50.920;5.350;2023-06-22T02:20:27;20.80;99.90
41668;DHT22;27356;50.920;5.350;2023-06-22T02:22:52;20.80;99.90
41668;DHT22;27356;50.920;5.350;2023-06-22T02:25:18;20.80;99.90
41668;DHT22;27356;50.920;5.350;2023-06-22T02:27:45;20.90;99.90
41668;DHT22;27356;50.920;5.350;2023-06-22T02:30:13;21.00;99.90
41668;DHT22;27356;50.920;5.350;2023-06-22T02:32:40;20.90;99.90
41668;DHT22;27356;50.920;5.350;2023-06-22T02:35:08;21.00;99.90
41668;DHT22;27356;50.920;5.350;2023-06-22T02:37:36;20.90;99.90
41668;DHT22;27356;50.920;5.350;2023-06-22T02:40:05;20.90;99.90
41668;DHT22;27356;50.920;5.350;2023-06-22T02:42:33;20.90;99.90
41668;DHT22;27356;50.920;5.350;2023-06-22T02:44:59;20.80;99.90
41668;DHT22;27356;50.920;5.350;2023-06-22T02:47:25;20.70;99.90
41668;DHT22;27356;50.920;5.350;2023-06-22T02:49:51;20.70;99.90
41668;DHT22;27356;50.920;5.350;2023-06-22T02:52:17;20.60;99.90
41668;DHT22;27356;50.920;5.350;2023-06-22T02:54:43;20.60;99.90
41668;DHT22;27356;50.920;5.350;2023-06-22T02:57:11;20.60;99.90
41668;DHT22;27356;50.920;5.350;2023-06-22T02:59:42;20.50;99.90
41668;DHT22;27356;50.920;5.350;2023-06-22T03:02:08;20.40;99.90
41668;DHT22;27356;50.920;5.350;2023-06-22T03:04:35;20.40;99.90
41668;DHT22;27356;50.920;5.350;2023-06-22T03:07:01;20.20;99.90
41668;DHT22;27356;50.920;5.350;2023-06-22T03:09:27;20.10;99.90
41668;DHT22;27356;50.920;5.350;2023-06-22T03:11:54;20.10;99.90
41668;DHT22;27356;50.920;5.350;2023-06-22T03:14:20;20.10;99.90
41668;DHT22;27356;50.920;5.350;2023-06-22T03:16:46;20.10;99.90
41668;DHT22;27356;50.920;5.350;2023-06-22T03:19:12;20.00;99.90
41668;DHT22;27356;50.920;5.350;2023-06-22T03:21:38;20.10;99.90
41668;DHT22;27356;50.920;5.350;2023-06-22T03:24:05;20.20;99.90
41668;DHT22;27356;50.920;5.350;2023-06-22T03:26:31;20.20;99.90
41668;DHT22;27356;50.920;5.350;2023-06-22T03:28:57;20.40;99.90
41668;DHT22;27356;50.920;5.350;2023-06-22T03:31:23;20.40;99.90
41668;DHT22;27356;50.920;5.350;2023-06-22T03:33:50;20.40;99.90
41668;DHT22;27356;50.920;5.350;2023-06-22T03:36:16;20.40;99.90
41668;DHT22;27356;50.920;5.350;2023-06-22T03:38:47;20.40;99.90
41668;DHT22;27356;50.920;5.350;2023-06-22T03:41:13;20.20;99.90
41668;DHT22;27356;50.920;5.350;2023-06-22T03:43:39;20.20;99.90
41668;DHT22;27356;50.920;5.350;2023-06-22T03:46:05;20.10;99.90
41668;DHT22;27356;50.920;5.350;2023-06-22T03:52:15;20.30;99.90
41668;DHT22;27356;50.920;5.350;2023-06-22T03:54:41;20.30;99.90
41668;DHT22;27356;50.920;5.350;2023-06-22T03:57:07;20.30;99.90
41668;DHT22;27356;50.920;5.350;2023-06-22T03:59:32;20.40;99.90
41668;DHT22;27356;50.920;5.350;2023-06-22T04:01:58;20.40;99.90
41668;DHT22;27356;50.920;5.350;2023-06-22T04:04:24;20.50;99.90
41668;DHT22;27356;50.920;5.350;2023-06-22T04:06:50;20.50;99.90
41668;DHT22;27356;50.920;5.350;2023-06-22T04:09:16;20.60;99.90
41668;DHT22;27356;50.920;5.350;2023-06-22T04:11:41;20.60;99.90
41668;DHT22;27356;50.920;5.350;2023-06-22T04:14:07;20.70;99.90
41668;DHT22;27356;50.920;5.350;2023-06-22T04:16:33;20.70;99.90
41668;DHT22;27356;50.920;5.350;2023-06-22T04:18:59;20.80;99.90
41668;DHT22;27356;50.920;5.350;2023-06-22T04:21:24;20.80;99.90
41668;DHT22;27356;50.920;5.350;2023-06-22T04:23:50;20.80;99.90
41668;DHT22;27356;50.920;5.350;2023-06-22T04:26:16;20.90;99.90
41668;DHT22;27356;50.920;5.350;2023-06-22T04:28:42;20.90;99.90
41668;DHT22;27356;50.920;5.350;2023-06-22T04:31:07;20.90;99.90
41668;DHT22;27356;50.920;5.350;2023-06-22T04:33:33;20.90;99.90
41668;DHT22;27356;50.920;5.350;2023-06-22T04:35:59;20.90;99.90
41668;DHT22;27356;50.920;5.350;2023-06-22T04:38:29;20.90;99.90
41668;DHT22;27356;50.920;5.350;2023-06-22T04:40:58;20.90;99.90
41668;DHT22;27356;50.920;5.350;2023-06-22T04:43:26;20.80;99.90
41668;DHT22;27356;50.920;5.350;2023-06-22T04:45:56;20.60;99.90
41668;DHT22;27356;50.920;5.350;2023-06-22T04:48:22;20.40;99.90
41668;DHT22;27356;50.920;5.350;2023-06-22T04:50:48;20.20;99.90
41668;DHT22;27356;50.920;5.350;2023-06-22T04:53:13;20.20;99.90
41668;DHT22;27356;50.920;5.350;2023-06-22T04:55:39;20.20;99.90
41668;DHT22;27356;50.920;5.350;2023-06-22T04:58:07;20.10;99.90
41668;DHT22;27356;50.920;5.350;2023-06-22T05:00:33;19.90;99.90
41668;DHT22;27356;50.920;5.350;2023-06-22T05:03:02;19.60;99.90
41668;DHT22;27356;50.920;5.350;2023-06-22T05:05:29;19.40;99.90
41668;DHT22;27356;50.920;5.350;2023-06-22T05:07:56;19.20;99.90
41668;DHT22;27356;50.920;5.350;2023-06-22T05:10:26;19.10;99.90
41668;DHT22;27356;50.920;5.350;2023-06-22T05:12:51;18.90;99.90
41668;DHT22;27356;50.920;5.350;2023-06-22T05:15:17;18.70;99.90
41668;DHT22;27356;50.920;5.350;2023-06-22T05:17:45;18.70;99.90
41668;DHT22;27356;50.920;5.350;2023-06-22T05:20:11;18.70;99.90
41668;DHT22;27356;50.920;5.350;2023-06-22T05:22:38;18.90;99.90
41668;DHT22;27356;50.920;5.350;2023-06-22T05:25:08;18.90;99.90
41668;DHT22;27356;50.920;5.350;2023-06-22T05:27:34;18.90;99.90
41668;DHT22;27356;50.920;5.350;2023-06-22T05:30:05;18.90;99.90
41668;DHT22;27356;50.920;5.350;2023-06-22T05:32:32;18.90;99.90
41668;DHT22;27356;50.920;5.350;2023-06-22T05:34:59;18.90;99.90
41668;DHT22;27356;50.920;5.350;2023-06-22T05:37:25;18.90;99.90
41668;DHT22;27356;50.920;5.350;2023-06-22T05:39:51;19.00;99.90
41668;DHT22;27356;50.920;5.350;2023-06-22T05:42:17;18.90;99.90
41668;DHT22;27356;50.920;5.350;2023-06-22T05:44:43;19.00;99.90
41668;DHT22;27356;50.920;5.350;2023-06-22T05:47:08;19.10;99.90
41668;DHT22;27356;50.920;5.350;2023-06-22T05:49:34;19.10;99.90
41668;DHT22;27356;50.920;5.350;2023-06-22T05:52:00;19.30;99.90
41668;DHT22;27356;50.920;5.350;2023-06-22T05:54:27;19.30;99.90
41668;DHT22;27356;50.920;5.350;2023-06-22T05:56:53;19.40;99.90
41668;DHT22;27356;50.920;5.350;2023-06-22T05:59:19;19.50;99.90
41668;DHT22;27356;50.920;5.350;2023-06-22T06:01:45;19.60;99.90
41668;DHT22;27356;50.920;5.350;2023-06-22T06:04:18;19.50;99.90
41668;DHT22;27356;50.920;5.350;2023-06-22T06:06:45;19.60;99.90
41668;DHT22;27356;50.920;5.350;2023-06-22T06:09:13;19.70;99.90
41668;DHT22;27356;50.920;5.350;2023-06-22T06:11:39;19.70;99.90
41668;DHT22;27356;50.920;5.350;2023-06-22T06:14:08;19.80;99.90
41668;DHT22;27356;50.920;5.350;2023-06-22T06:16:34;19.80;99.90
41668;DHT22;27356;50.920;5.350;2023-06-22T06:19:00;19.70;99.90
41668;DHT22;27356;50.920;5.350;2023-06-22T06:21:26;19.70;99.90
41668;DHT22;27356;50.920;5.350;2023-06-22T06:23:51;19.80;99.90
41668;DHT22;27356;50.920;5.350;2023-06-22T06:26:18;19.90;99.90
41668;DHT22;27356;50.920;5.350;2023-06-22T06:28:54;19.90;99.90
41668;DHT22;27356;50.920;5.350;2023-06-22T06:31:20;19.90;99.90
41668;DHT22;27356;50.920;5.350;2023-06-22T06:33:46;19.90;99.90
41668;DHT22;27356;50.920;5.350;2023-06-22T06:36:12;19.90;99.90
41668;DHT22;27356;50.920;5.350;2023-06-22T06:38:38;19.80;99.90
41668;DHT22;27356;50.920;5.350;2023-06-22T06:41:03;19.80;99.90
41668;DHT22;27356;50.920;5.350;2023-06-22T06:43:29;19.70;99.90
41668;DHT22;27356;50.920;5.350;2023-06-22T06:45:55;19.80;99.90
41668;DHT22;27356;50.920;5.350;2023-06-22T06:48:20;19.80;99.90
41668;DHT22;27356;50.920;5.350;2023-06-22T06:50:46;20.00;99.90
41668;DHT22;27356;50.920;5.350;2023-06-22T06:53:12;20.20;99.90
41668;DHT22;27356;50.920;5.350;2023-06-22T06:55:38;20.40;99.90
41668;DHT22;27356;50.920;5.350;2023-06-22T06:58:04;20.50;99.90
41668;DHT22;27356;50.920;5.350;2023-06-22T07:00:33;20.70;99.90
41668;DHT22;27356;50.920;5.350;2023-06-22T07:02:58;20.80;99.90
41668;DHT22;27356;50.920;5.350;2023-06-22T07:05:24;21.00;99.90
41668;DHT22;27356;50.920;5.350;2023-06-22T07:07:50;21.30;99.90
41668;DHT22;27356;50.920;5.350;2023-06-22T07:10:16;22.30;99.90
41668;DHT22;27356;50.920;5.350;2023-06-22T07:12:41;23.00;99.90
41668;DHT22;27356;50.920;5.350;2023-06-22T07:15:09;23.50;99.90
41668;DHT22;27356;50.920;5.350;2023-06-22T07:17:36;23.80;99.90
41668;DHT22;27356;50.920;5.350;2023-06-22T07:20:03;23.70;99.90
41668;DHT22;27356;50.920;5.350;2023-06-22T07:22:36;23.60;99.90
41668;DHT22;27356;50.920;5.350;2023-06-22T07:25:02;23.40;99.90
41668;DHT22;27356;50.920;5.350;2023-06-22T07:30:33;23.00;99.90
41668;DHT22;27356;50.920;5.350;2023-06-22T07:33:00;22.80;99.90
41668;DHT22;27356;50.920;5.350;2023-06-22T07:35:32;22.80;99.90
41668;DHT22;27356;50.920;5.350;2023-06-22T07:37:59;22.80;99.90
41668;DHT22;27356;50.920;5.350;2023-06-22T07:40:25;22.80;99.90
41668;DHT22;27356;50.920;5.350;2023-06-22T07:42:51;22.70;99.90
41668;DHT22;27356;50.920;5.350;2023-06-22T07:45:18;22.50;99.90
41668;DHT22;27356;50.920;5.350;2023-06-22T07:47:44;22.30;99.90
41668;DHT22;27356;50.920;5.350;2023-06-22T07:50:10;22.20;99.90
41668;DHT22;27356;50.920;5.350;2023-06-22T07:52:36;22.30;99.90
41668;DHT22;27356;50.920;5.350;2023-06-22T07:55:02;22.40;99.90
41668;DHT22;27356;50.920;5.350;2023-06-22T07:57:28;22.40;99.90
41668;DHT22;27356;50.920;5.350;2023-06-22T08:00:04;22.30;99.90
41668;DHT22;27356;50.920;5.350;2023-06-22T08:02:37;22.30;99.90
41668;DHT22;27356;50.920;5.350;2023-06-22T08:05:03;22.40;99.90
41668;DHT22;27356;50.920;5.350;2023-06-22T08:07:30;22.60;99.90
41668;DHT22;27356;50.920;5.350;2023-06-22T08:09:58;22.80;99.90
41668;DHT22;27356;50.920;5.350;2023-06-22T08:12:24;22.90;99.90
41668;DHT22;27356;50.920;5.350;2023-06-22T08:14:50;23.30;99.90
41668;DHT22;27356;50.920;5.350;2023-06-22T08:17:16;23.60;99.90
41668;DHT22;27356;50.920;5.350;2023-06-22T08:19:41;23.70;99.90
41668;DHT22;27356;50.920;5.350;2023-06-22T08:22:07;24.10;99.90
41668;DHT22;27356;50.920;5.350;2023-06-22T08:24:33;24.40;99.90
41668;DHT22;27356;50.920;5.350;2023-06-22T08:26:59;24.60;99.90
41668;DHT22;27356;50.920;5.350;2023-06-22T08:29:24;24.70;99.90
41668;DHT22;27356;50.920;5.350;2023-06-22T08:31:50;24.50;99.90
41668;DHT22;27356;50.920;5.350;2023-06-22T08:34:16;24.50;99.90
41668;DHT22;27356;50.920;5.350;2023-06-22T08:36:47;24.60;99.90
41668;DHT22;27356;50.920;5.350;2023-06-22T08:39:17;24.50;99.90
41668;DHT22;27356;50.920;5.350;2023-06-22T08:41:43;24.70;99.90
41668;DHT22;27356;50.920;5.350;2023-06-22T08:44:10;25.00;99.90
41668;DHT22;27356;50.920;5.350;2023-06-22T08:46:36;25.20;99.90
41668;DHT22;27356;50.920;5.350;2023-06-22T08:49:04;25.70;99.90
41668;DHT22;27356;50.920;5.350;2023-06-22T08:51:30;25.60;99.90
41668;DHT22;27356;50.920;5.350;2023-06-22T08:53:55;25.60;99.90
41668;DHT22;27356;50.920;5.350;2023-06-22T08:56:21;25.60;99.90
41668;DHT22;27356;50.920;5.350;2023-06-22T08:58:47;25.60;99.90
41668;DHT22;27356;50.920;5.350;2023-06-22T09:01:13;25.10;99.90
41668;DHT22;27356;50.920;5.350;2023-06-22T09:03:41;24.70;99.90
41668;DHT22;27356;50.920;5.350;2023-06-22T09:06:06;24.70;99.90
41668;DHT22;27356;50.920;5.350;2023-06-22T09:08:35;24.80;99.90
41668;DHT22;27356;50.920;5.350;2023-06-22T09:11:01;24.50;99.90
41668;DHT22;27356;50.920;5.350;2023-06-22T09:13:30;24.30;99.90
41668;DHT22;27356;50.920;5.350;2023-06-22T09:15:56;24.40;99.90
41668;DHT22;27356;50.920;5.350;2023-06-22T09:18:22;24.40;99.90
41668;DHT22;27356;50.920;5.350;2023-06-22T09:20:47;24.30;99.90
41668;DHT22;27356;50.920;5.350;2023-06-22T09:23:14;24.30;99.90
41668;DHT22;27356;50.920;5.350;2023-06-22T09:25:40;24.30;99.90
41668;DHT22;27356;50.920;5.350;2023-06-22T09:28:06;24.50;99.90
41668;DHT22;27356;50.920;5.350;2023-06-22T09:30:32;24.40;99.90
41668;DHT22;27356;50.920;5.350;2023-06-22T09:32:58;24.60;99.90
41668;DHT22;27356;50.920;5.350;2023-06-22T09:35:23;24.50;99.90
41668;DHT22;27356;50.920;5.350;2023-06-22T09:37:49;24.60;99.90
41668;DHT22;27356;50.920;5.350;2023-06-22T09:40:15;24.40;99.90
41668;DHT22;27356;50.920;5.350;2023-06-22T09:42:42;24.50;99.90
41668;DHT22;27356;50.920;5.350;2023-06-22T09:45:08;24.50;99.90
41668;DHT22;27356;50.920;5.350;2023-06-22T09:47:34;24.50;99.90
41668;DHT22;27356;50.920;5.350;2023-06-22T09:50:00;24.30;99.90
41668;DHT22;27356;50.920;5.350;2023-06-22T09:52:26;24.40;99.90
41668;DHT22;27356;50.920;5.350;2023-06-22T09:54:53;24.10;99.90
41668;DHT22;27356;50.920;5.350;2023-06-22T09:57:19;23.90;99.90
41668;DHT22;27356;50.920;5.350;2023-06-22T09:59:45;23.80;99.90
41668;DHT22;27356;50.920;5.350;2023-06-22T10:02:10;23.80;99.90
41668;DHT22;27356;50.920;5.350;2023-06-22T10:04:36;23.70;99.90
41668;DHT22;27356;50.920;5.350;2023-06-22T10:07:03;23.60;99.90
41668;DHT22;27356;50.920;5.350;2023-06-22T10:09:29;23.50;99.90
41668;DHT22;27356;50.920;5.350;2023-06-22T10:11:55;23.30;99.90
41668;DHT22;27356;50.920;5.350;2023-06-22T10:14:20;23.10;99.90
41668;DHT22;27356;50.920;5.350;2023-06-22T10:16:48;23.00;99.90
41668;DHT22;27356;50.920;5.350;2023-06-22T10:19:14;22.90;99.90
41668;DHT22;27356;50.920;5.350;2023-06-22T10:21:39;22.50;99.90
41668;DHT22;27356;50.920;5.350;2023-06-22T10:24:05;22.40;99.90
41668;DHT22;27356;50.920;5.350;2023-06-22T10:26:35;22.40;99.90
41668;DHT22;27356;50.920;5.350;2023-06-22T10:29:03;22.30;99.90
41668;DHT22;27356;50.920;5.350;2023-06-22T10:31:28;22.00;99.90
41668;DHT22;27356;50.920;5.350;2023-06-22T10:33:55;21.70;99.90
41668;DHT22;27356;50.920;5.350;2023-06-22T10:36:21;21.30;99.90
41668;DHT22;27356;50.920;5.350;2023-06-22T10:38:48;21.00;99.90
41668;DHT22;27356;50.920;5.350;2023-06-22T10:41:14;21.00;99.90
41668;DHT22;27356;50.920;5.350;2023-06-22T10:43:40;21.10;99.90
41668;DHT22;27356;50.920;5.350;2023-06-22T10:46:06;21.20;99.90
41668;DHT22;27356;50.920;5.350;2023-06-22T10:48:32;21.40;99.90
41668;DHT22;27356;50.920;5.350;2023-06-22T10:50:58;21.50;99.90
41668;DHT22;27356;50.920;5.350;2023-06-22T10:53:24;21.70;99.90
41668;DHT22;27356;50.920;5.350;2023-06-22T10:55:50;21.70;99.90
41668;DHT22;27356;50.920;5.350;2023-06-22T10:58:18;21.80;99.90
41668;DHT22;27356;50.920;5.350;2023-06-22T11:00:44;21.80;99.90
41668;DHT22;27356;50.920;5.350;2023-06-22T11:03:10;21.80;99.90
41668;DHT22;27356;50.920;5.350;2023-06-22T11:05:36;21.80;99.90
41668;DHT22;27356;50.920;5.350;2023-06-22T11:08:02;21.80;99.90
41668;DHT22;27356;50.920;5.350;2023-06-22T11:10:28;21.80;99.90
41668;DHT22;27356;50.920;5.350;2023-06-22T11:12:54;21.70;99.90
41668;DHT22;27356;50.920;5.350;2023-06-22T11:15:21;21.70;99.90
41668;DHT22;27356;50.920;5.350;2023-06-22T11:17:46;21.70;99.90
41668;DHT22;27356;50.920;5.350;2023-06-22T11:20:12;22.00;99.90
41668;DHT22;27356;50.920;5.350;2023-06-22T11:22:39;22.10;99.90
41668;DHT22;27356;50.920;5.350;2023-06-22T11:25:05;22.40;99.90
41668;DHT22;27356;50.920;5.350;2023-06-22T11:27:31;22.60;99.90
41668;DHT22;27356;50.920;5.350;2023-06-22T11:29:57;22.70;99.90
41668;DHT22;27356;50.920;5.350;2023-06-22T11:32:23;22.70;99.90
41668;DHT22;27356;50.920;5.350;2023-06-22T11:34:49;22.50;99.90
41668;DHT22;27356;50.920;5.350;2023-06-22T11:37:15;22.50;99.90
41668;DHT22;27356;50.920;5.350;2023-06-22T11:39:42;22.60;99.90
41668;DHT22;27356;50.920;5.350;2023-06-22T11:42:08;22.90;99.90
41668;DHT22;27356;50.920;5.350;2023-06-22T11:44:34;23.00;99.90
41668;DHT22;27356;50.920;5.350;2023-06-22T11:47:00;23.00;99.90
41668;DHT22;27356;50.920;5.350;2023-06-22T11:49:30;22.90;99.90
41668;DHT22;27356;50.920;5.350;2023-06-22T11:51:56;22.60;99.90
41668;DHT22;27356;50.920;5.350;2023-06-22T11:54:22;22.60;99.90
41668;DHT22;27356;50.920;5.350;2023-06-22T11:56:47;22.40;99.90
41668;DHT22;27356;50.920;5.350;2023-06-22T11:59:13;22.40;99.90
41668;DHT22;27356;50.920;5.350;2023-06-22T12:01:39;22.30;99.90
41668;DHT22;27356;50.920;5.350;2023-06-22T12:04:05;22.10;99.90
41668;DHT22;27356;50.920;5.350;2023-06-22T12:06:32;22.00;99.90
41668;DHT22;27356;50.920;5.350;2023-06-22T12:08:58;21.80;99.90
41668;DHT22;27356;50.920;5.350;2023-06-22T12:11:24;21.60;99.90
41668;DHT22;27356;50.920;5.350;2023-06-22T12:13:50;21.60;99.90
41668;DHT22;27356;50.920;5.350;2023-06-22T12:16:16;21.40;99.90
41668;DHT22;27356;50.920;5.350;2023-06-22T12:18:41;21.30;99.90
41668;DHT22;27356;50.920;5.350;2023-06-22T12:21:08;21.00;99.90
41668;DHT22;27356;50.920;5.350;2023-06-22T12:23:34;21.00;99.90
41668;DHT22;27356;50.920;5.350;2023-06-22T12:26:00;21.10;99.90
41668;DHT22;27356;50.920;5.350;2023-06-22T12:28:27;21.10;99.90
41668;DHT22;27356;50.920;5.350;2023-06-22T12:30:52;21.00;99.90
41668;DHT22;27356;50.920;5.350;2023-06-22T12:33:18;21.10;99.90
41668;DHT22;27356;50.920;5.350;2023-06-22T12:35:45;21.20;99.90
41668;DHT22;27356;50.920;5.350;2023-06-22T12:38:11;21.20;99.90
41668;DHT22;27356;50.920;5.350;2023-06-22T12:40:37;21.10;99.90
41668;DHT22;27356;50.920;5.350;2023-06-22T12:43:02;21.10;99.90
41668;DHT22;27356;50.920;5.350;2023-06-22T12:45:28;21.00;99.90
41668;DHT22;27356;50.920;5.350;2023-06-22T12:47:59;20.90;99.90
41668;DHT22;27356;50.920;5.350;2023-06-22T12:50:25;20.80;99.90
41668;DHT22;27356;50.920;5.350;2023-06-22T12:52:51;20.80;99.90
41668;DHT22;27356;50.920;5.350;2023-06-22T12:55:17;20.60;99.90
41668;DHT22;27356;50.920;5.350;2023-06-22T12:57:42;20.40;99.90
41668;DHT22;27356;50.920;5.350;2023-06-22T13:00:09;20.40;99.90
41668;DHT22;27356;50.920;5.350;2023-06-22T13:02:36;20.20;99.90
41668;DHT22;27356;50.920;5.350;2023-06-22T13:05:02;20.10;99.90
41668;DHT22;27356;50.920;5.350;2023-06-22T13:07:30;20.10;99.90
41668;DHT22;27356;50.920;5.350;2023-06-22T13:09:56;20.00;99.90
41668;DHT22;27356;50.920;5.350;2023-06-22T13:12:22;20.00;99.90
41668;DHT22;27356;50.920;5.350;2023-06-22T13:14:48;19.90;99.90
41668;DHT22;27356;50.920;5.350;2023-06-22T13:17:15;19.70;99.90
41668;DHT22;27356;50.920;5.350;2023-06-22T13:19:46;19.60;99.90
41668;DHT22;27356;50.920;5.350;2023-06-22T13:22:45;19.50;99.90
41668;DHT22;27356;50.920;5.350;2023-06-22T13:25:10;19.50;99.90
41668;DHT22;27356;50.920;5.350;2023-06-22T13:27:41;19.50;99.90
41668;DHT22;27356;50.920;5.350;2023-06-22T13:30:08;19.60;99.90
41668;DHT22;27356;50.920;5.350;2023-06-22T13:32:34;19.60;99.90
41668;DHT22;27356;50.920;5.350;2023-06-22T13:35:00;19.50;99.90
41668;DHT22;27356;50.920;5.350;2023-06-22T13:37:26;19.50;99.90
41668;DHT22;27356;50.920;5.350;2023-06-22T13:39:52;19.40;99.90
41668;DHT22;27356;50.920;5.350;2023-06-22T13:42:18;19.30;99.90
41668;DHT22;27356;50.920;5.350;2023-06-22T13:44:44;19.30;99.90
41668;DHT22;27356;50.920;5.350;2023-06-22T13:47:10;19.20;99.90
41668;DHT22;27356;50.920;5.350;2023-06-22T13:49:36;19.30;99.90
41668;DHT22;27356;50.920;5.350;2023-06-22T13:52:02;19.40;99.90
41668;DHT22;27356;50.920;5.350;2023-06-22T13:54:29;19.30;99.90
41668;DHT22;27356;50.920;5.350;2023-06-22T13:56:55;19.30;99.90
41668;DHT22;27356;50.920;5.350;2023-06-22T13:59:21;19.30;99.90
41668;DHT22;27356;50.920;5.350;2023-06-22T14:01:47;19.30;99.90
41668;DHT22;27356;50.920;5.350;2023-06-22T14:04:13;19.30;99.90
41668;DHT22;27356;50.920;5.350;2023-06-22T14:06:38;19.30;99.90
41668;DHT22;27356;50.920;5.350;2023-06-22T14:09:04;19.30;99.90
41668;DHT22;27356;50.920;5.350;2023-06-22T14:11:30;19.30;99.90
41668;DHT22;27356;50.920;5.350;2023-06-22T14:13:56;19.30;99.90
41668;DHT22;27356;50.920;5.350;2023-06-22T14:16:22;19.20;99.90
41668;DHT22;27356;50.920;5.350;2023-06-22T14:18:47;19.30;99.90
41668;DHT22;27356;50.920;5.350;2023-06-22T14:21:13;19.20;99.90
41668;DHT22;27356;50.920;5.350;2023-06-22T14:23:39;19.10;99.90
41668;DHT22;27356;50.920;5.350;2023-06-22T14:26:05;19.10;99.90
41668;DHT22;27356;50.920;5.350;2023-06-22T14:28:31;19.10;99.90
41668;DHT22;27356;50.920;5.350;2023-06-22T14:30:56;19.10;99.90
41668;DHT22;27356;50.920;5.350;2023-06-22T14:33:22;19.00;99.90
41668;DHT22;27356;50.920;5.350;2023-06-22T14:35:48;19.00;99.90
41668;DHT22;27356;50.920;5.350;2023-06-22T14:38:15;19.00;99.90
41668;DHT22;27356;50.920;5.350;2023-06-22T14:40:40;18.90;99.90
41668;DHT22;27356;50.920;5.350;2023-06-22T14:43:06;19.00;99.90
41668;DHT22;27356;50.920;5.350;2023-06-22T14:45:32;18.80;99.90
41668;DHT22;27356;50.920;5.350;2023-06-22T14:47:58;18.70;99.90
41668;DHT22;27356;50.920;5.350;2023-06-22T14:50:24;18.70;99.90
41668;DHT22;27356;50.920;5.350;2023-06-22T14:52:49;18.70;99.90
41668;DHT22;27356;50.920;5.350;2023-06-22T14:55:15;18.70;99.90
41668;DHT22;27356;50.920;5.350;2023-06-22T14:57:41;18.70;99.90
41668;DHT22;27356;50.920;5.350;2023-06-22T15:00:07;18.60;99.90
41668;DHT22;27356;50.920;5.350;2023-06-22T15:02:33;18.60;99.90
41668;DHT22;27356;50.920;5.350;2023-06-22T15:04:59;18.50;99.90
41668;DHT22;27356;50.920;5.350;2023-06-22T15:07:25;18.40;99.90
41668;DHT22;27356;50.920;5.350;2023-06-22T15:09:51;18.40;99.90
41668;DHT22;27356;50.920;5.350;2023-06-22T15:12:16;18.40;99.90
41668;DHT22;27356;50.920;5.350;2023-06-22T15:14:45;18.50;99.90
41668;DHT22;27356;50.920;5.350;2023-06-22T15:17:11;18.50;99.90
41668;DHT22;27356;50.920;5.350;2023-06-22T15:19:39;18.60;99.90
41668;DHT22;27356;50.920;5.350;2023-06-22T15:22:07;18.50;99.90
41668;DHT22;27356;50.920;5.350;2023-06-22T15:24:33;18.50;99.90
41668;DHT22;27356;50.920;5.350;2023-06-22T15:26:59;18.40;99.90
41668;DHT22;27356;50.920;5.350;2023-06-22T15:29:26;18.40;99.90
41668;DHT22;27356;50.920;5.350;2023-06-22T15:31:52;18.40;99.90
41668;DHT22;27356;50.920;5.350;2023-06-22T15:34:19;18.50;99.90
41668;DHT22;27356;50.920;5.350;2023-06-22T15:36:44;18.40;99.90